sensor_id;sensor_type;location;lat;lon;timestamp;P1;durP1;ratioP1;P2;durP2;ratioP2
51961;SDS011;37986;51.238;17.128;2022-10-16T00:01:04;20.95;;;13.83;;
51961;SDS011;37986;51.238;17.128;2022-10-16T00:03:37;19.15;;;14.58;;
51961;SDS011;37986;51.238;17.128;2022-10-16T00:06:05;17.32;;;13.05;;
51961;SDS011;37986;51.238;17.128;2022-10-16T00:08:32;16.40;;;13.10;;
51961;SDS011;37986;51.238;17.128;2022-10-16T00:11:07;19.40;;;13.55;;
51961;SDS011;37986;51.238;17.128;2022-10-16T00:13:39;16.87;;;12.70;;
51961;SDS011;37986;51.238;17.128;2022-10-16T00:16:07;15.90;;;11.33;;
51961;SDS011;37986;51.238;17.128;2022-10-16T00:18:34;15.50;;;12.45;;
51961;SDS011;37986;51.238;17.128;2022-10-16T00:21:04;18.62;;;12.85;;
51961;SDS011;37986;51.238;17.128;2022-10-16T00:23:33;15.30;;;11.60;;
51961;SDS011;37986;51.238;17.128;2022-10-16T00:26:08;14.05;;;11.18;;
51961;SDS011;37986;51.238;17.128;2022-10-16T00:28:34;14.65;;;10.88;;
51961;SDS011;37986;51.238;17.128;2022-10-16T00:31:04;15.25;;;10.10;;
51961;SDS011;37986;51.238;17.128;2022-10-16T00:33:32;14.67;;;10.33;;
51961;SDS011;37986;51.238;17.128;2022-10-16T00:35:59;11.53;;;9.00;;
51961;SDS011;37986;51.238;17.128;2022-10-16T00:38:26;13.28;;;9.98;;
51961;SDS011;37986;51.238;17.128;2022-10-16T00:40:52;15.63;;;10.70;;
51961;SDS011;37986;51.238;17.128;2022-10-16T00:43:37;12.95;;;9.80;;
51961;SDS011;37986;51.238;17.128;2022-10-16T00:51:36;11.68;;;9.50;;
51961;SDS011;37986;51.238;17.128;2022-10-16T00:54:04;13.50;;;9.25;;
51961;SDS011;37986;51.238;17.128;2022-10-16T00:56:40;13.28;;;9.25;;
51961;SDS011;37986;51.238;17.128;2022-10-16T00:59:09;11.93;;;8.90;;
51961;SDS011;37986;51.238;17.128;2022-10-16T01:01:40;9.65;;;8.60;;
51961;SDS011;37986;51.238;17.128;2022-10-16T01:04:06;13.93;;;9.27;;
51961;SDS011;37986;51.238;17.128;2022-10-16T01:06:35;11.50;;;8.20;;
51961;SDS011;37986;51.238;17.128;2022-10-16T01:09:13;12.75;;;8.30;;
51961;SDS011;37986;51.238;17.128;2022-10-16T01:12:01;11.10;;;9.28;;
51961;SDS011;37986;51.238;17.128;2022-10-16T01:14:48;9.73;;;8.58;;
51961;SDS011;37986;51.238;17.128;2022-10-16T01:17:33;1.85;;;1.20;;
51961;SDS011;37986;51.238;17.128;2022-10-16T01:20:12;2.77;;;1.98;;
51961;SDS011;37986;51.238;17.128;2022-10-16T01:23:02;1.07;;;1.07;;
51961;SDS011;37986;51.238;17.128;2022-10-16T01:28:49;1.45;;;0.93;;
51961;SDS011;37986;51.238;17.128;2022-10-16T01:31:22;0.45;;;0.45;;
51961;SDS011;37986;51.238;17.128;2022-10-16T01:33:57;1.70;;;0.95;;
51961;SDS011;37986;51.238;17.128;2022-10-16T01:36:25;0.93;;;0.90;;
51961;SDS011;37986;51.238;17.128;2022-10-16T01:38:55;1.77;;;1.67;;
51961;SDS011;37986;51.238;17.128;2022-10-16T01:41:31;1.40;;;1.07;;
51961;SDS011;37986;51.238;17.128;2022-10-16T01:44:04;1.67;;;1.57;;
51961;SDS011;37986;51.238;17.128;2022-10-16T01:46:34;1.42;;;1.40;;
51961;SDS011;37986;51.238;17.128;2022-10-16T01:49:03;1.67;;;1.40;;
51961;SDS011;37986;51.238;17.128;2022-10-16T01:51:30;1.32;;;1.32;;
51961;SDS011;37986;51.238;17.128;2022-10-16T01:53:56;4.93;;;1.67;;
51961;SDS011;37986;51.238;17.128;2022-10-16T01:56:24;1.02;;;1.00;;
51961;SDS011;37986;51.238;17.128;2022-10-16T01:58:55;0.72;;;0.70;;
51961;SDS011;37986;51.238;17.128;2022-10-16T02:01:29;2.92;;;1.98;;
51961;SDS011;37986;51.238;17.128;2022-10-16T02:03:57;0.85;;;0.75;;
51961;SDS011;37986;51.238;17.128;2022-10-16T02:06:28;0.30;;;0.30;;
51961;SDS011;37986;51.238;17.128;2022-10-16T02:08:54;1.40;;;1.30;;
51961;SDS011;37986;51.238;17.128;2022-10-16T02:11:20;1.47;;;1.00;;
51961;SDS011;37986;51.238;17.128;2022-10-16T02:13:58;1.25;;;1.15;;
51961;SDS011;37986;51.238;17.128;2022-10-16T02:16:35;1.17;;;0.82;;
51961;SDS011;37986;51.238;17.128;2022-10-16T02:19:07;0.70;;;0.70;;
51961;SDS011;37986;51.238;17.128;2022-10-16T02:21:38;2.40;;;2.20;;
51961;SDS011;37986;51.238;17.128;2022-10-16T02:24:32;3.27;;;1.25;;
51961;SDS011;37986;51.238;17.128;2022-10-16T02:27:11;2.72;;;1.10;;
51961;SDS011;37986;51.238;17.128;2022-10-16T02:29:47;0.53;;;0.53;;
51961;SDS011;37986;51.238;17.128;2022-10-16T02:32:19;0.68;;;0.68;;
51961;SDS011;37986;51.238;17.128;2022-10-16T02:34:48;1.00;;;1.00;;
51961;SDS011;37986;51.238;17.128;2022-10-16T02:37:15;0.98;;;0.98;;
51961;SDS011;37986;51.238;17.128;2022-10-16T02:39:42;2.40;;;1.55;;
51961;SDS011;37986;51.238;17.128;2022-10-16T02:42:14;2.12;;;2.02;;
51961;SDS011;37986;51.238;17.128;2022-10-16T02:44:40;0.50;;;0.50;;
51961;SDS011;37986;51.238;17.128;2022-10-16T02:47:05;3.07;;;1.30;;
51961;SDS011;37986;51.238;17.128;2022-10-16T02:49:31;3.40;;;1.90;;
51961;SDS011;37986;51.238;17.128;2022-10-16T02:51:57;1.50;;;1.10;;
51961;SDS011;37986;51.238;17.128;2022-10-16T02:54:23;0.47;;;0.47;;
51961;SDS011;37986;51.238;17.128;2022-10-16T02:56:49;1.87;;;1.55;;
51961;SDS011;37986;51.238;17.128;2022-10-16T02:59:15;1.40;;;0.83;;
51961;SDS011;37986;51.238;17.128;2022-10-16T03:01:41;1.40;;;0.70;;
51961;SDS011;37986;51.238;17.128;2022-10-16T03:04:07;2.95;;;1.45;;
51961;SDS011;37986;51.238;17.128;2022-10-16T03:06:32;0.62;;;0.62;;
51961;SDS011;37986;51.238;17.128;2022-10-16T03:08:58;5.30;;;2.07;;
51961;SDS011;37986;51.238;17.128;2022-10-16T03:11:24;2.00;;;1.70;;
51961;SDS011;37986;51.238;17.128;2022-10-16T03:13:49;2.57;;;1.27;;
51961;SDS011;37986;51.238;17.128;2022-10-16T03:16:15;3.62;;;1.37;;
51961;SDS011;37986;51.238;17.128;2022-10-16T03:18:41;1.67;;;1.15;;
51961;SDS011;37986;51.238;17.128;2022-10-16T03:21:07;4.65;;;2.12;;
51961;SDS011;37986;51.238;17.128;2022-10-16T03:23:32;0.73;;;0.73;;
51961;SDS011;37986;51.238;17.128;2022-10-16T03:25:58;4.77;;;2.53;;
51961;SDS011;37986;51.238;17.128;2022-10-16T03:28:24;5.47;;;1.35;;
51961;SDS011;37986;51.238;17.128;2022-10-16T03:30:50;1.10;;;1.10;;
51961;SDS011;37986;51.238;17.128;2022-10-16T03:33:15;3.33;;;1.30;;
51961;SDS011;37986;51.238;17.128;2022-10-16T03:35:41;2.37;;;1.43;;
51961;SDS011;37986;51.238;17.128;2022-10-16T03:38:07;0.97;;;0.53;;
51961;SDS011;37986;51.238;17.128;2022-10-16T03:40:32;3.20;;;1.35;;
51961;SDS011;37986;51.238;17.128;2022-10-16T03:42:58;2.62;;;2.40;;
51961;SDS011;37986;51.238;17.128;2022-10-16T03:45:24;3.52;;;1.27;;
51961;SDS011;37986;51.238;17.128;2022-10-16T03:47:50;3.20;;;0.65;;
51961;SDS011;37986;51.238;17.128;2022-10-16T03:50:16;0.10;;;0.10;;
51961;SDS011;37986;51.238;17.128;2022-10-16T03:52:42;0.10;;;0.10;;
51961;SDS011;37986;51.238;17.128;2022-10-16T03:55:07;0.10;;;0.10;;
51961;SDS011;37986;51.238;17.128;2022-10-16T03:57:33;0.75;;;0.75;;
51961;SDS011;37986;51.238;17.128;2022-10-16T03:59:59;0.20;;;0.20;;
51961;SDS011;37986;51.238;17.128;2022-10-16T04:02:25;0.57;;;0.57;;
51961;SDS011;37986;51.238;17.128;2022-10-16T04:04:50;1.20;;;0.28;;
51961;SDS011;37986;51.238;17.128;2022-10-16T04:07:16;1.50;;;1.32;;
51961;SDS011;37986;51.238;17.128;2022-10-16T04:09:42;0.10;;;0.10;;
51961;SDS011;37986;51.238;17.128;2022-10-16T04:12:08;0.10;;;0.10;;
51961;SDS011;37986;51.238;17.128;2022-10-16T04:14:33;1.35;;;1.10;;
51961;SDS011;37986;51.238;17.128;2022-10-16T04:16:59;0.95;;;0.95;;
51961;SDS011;37986;51.238;17.128;2022-10-16T04:19:25;0.72;;;0.50;;
51961;SDS011;37986;51.238;17.128;2022-10-16T04:21:51;6.40;;;1.25;;
51961;SDS011;37986;51.238;17.128;2022-10-16T04:24:17;0.73;;;0.73;;
51961;SDS011;37986;51.238;17.128;2022-10-16T04:26:43;1.10;;;0.68;;
51961;SDS011;37986;51.238;17.128;2022-10-16T04:29:08;0.60;;;0.60;;
51961;SDS011;37986;51.238;17.128;2022-10-16T04:31:34;0.20;;;0.20;;
51961;SDS011;37986;51.238;17.128;2022-10-16T04:34:00;0.55;;;0.55;;
51961;SDS011;37986;51.238;17.128;2022-10-16T04:36:26;2.03;;;1.60;;
51961;SDS011;37986;51.238;17.128;2022-10-16T04:38:51;1.93;;;0.90;;
51961;SDS011;37986;51.238;17.128;2022-10-16T04:41:17;0.80;;;0.75;;
51961;SDS011;37986;51.238;17.128;2022-10-16T04:43:43;1.27;;;1.07;;
51961;SDS011;37986;51.238;17.128;2022-10-16T04:46:08;0.70;;;0.70;;
51961;SDS011;37986;51.238;17.128;2022-10-16T04:48:35;4.67;;;2.70;;
51961;SDS011;37986;51.238;17.128;2022-10-16T04:51:01;1.02;;;0.45;;
51961;SDS011;37986;51.238;17.128;2022-10-16T04:53:26;0.23;;;0.23;;
51961;SDS011;37986;51.238;17.128;2022-10-16T04:55:52;0.50;;;0.50;;
51961;SDS011;37986;51.238;17.128;2022-10-16T04:58:18;1.07;;;0.68;;
51961;SDS011;37986;51.238;17.128;2022-10-16T05:00:44;1.00;;;0.77;;
51961;SDS011;37986;51.238;17.128;2022-10-16T05:03:12;32.33;;;2.17;;
51961;SDS011;37986;51.238;17.128;2022-10-16T05:05:41;0.60;;;0.57;;
51961;SDS011;37986;51.238;17.128;2022-10-16T05:08:11;0.37;;;0.30;;
51961;SDS011;37986;51.238;17.128;2022-10-16T05:10:38;1.65;;;0.47;;
51961;SDS011;37986;51.238;17.128;2022-10-16T05:13:06;1.82;;;1.65;;
51961;SDS011;37986;51.238;17.128;2022-10-16T05:15:31;7.92;;;1.67;;
51961;SDS011;37986;51.238;17.128;2022-10-16T05:17:57;0.35;;;0.35;;
51961;SDS011;37986;51.238;17.128;2022-10-16T05:20:23;1.10;;;1.00;;
51961;SDS011;37986;51.238;17.128;2022-10-16T05:22:48;0.90;;;0.90;;
51961;SDS011;37986;51.238;17.128;2022-10-16T05:25:14;0.30;;;0.30;;
51961;SDS011;37986;51.238;17.128;2022-10-16T05:27:40;6.15;;;1.15;;
51961;SDS011;37986;51.238;17.128;2022-10-16T05:30:06;0.60;;;0.57;;
51961;SDS011;37986;51.238;17.128;2022-10-16T05:32:32;0.25;;;0.25;;
51961;SDS011;37986;51.238;17.128;2022-10-16T05:34:58;1.17;;;0.95;;
51961;SDS011;37986;51.238;17.128;2022-10-16T05:37:25;0.93;;;0.93;;
51961;SDS011;37986;51.238;17.128;2022-10-16T05:39:52;1.55;;;1.45;;
51961;SDS011;37986;51.238;17.128;2022-10-16T05:42:18;0.40;;;0.40;;
51961;SDS011;37986;51.238;17.128;2022-10-16T05:44:44;0.85;;;0.85;;
51961;SDS011;37986;51.238;17.128;2022-10-16T05:47:09;6.37;;;1.72;;
51961;SDS011;37986;51.238;17.128;2022-10-16T05:49:37;1.77;;;1.17;;
51961;SDS011;37986;51.238;17.128;2022-10-16T05:52:03;1.17;;;1.17;;
51961;SDS011;37986;51.238;17.128;2022-10-16T05:54:28;1.25;;;1.05;;
51961;SDS011;37986;51.238;17.128;2022-10-16T05:56:54;0.42;;;0.42;;
51961;SDS011;37986;51.238;17.128;2022-10-16T05:59:20;0.68;;;0.68;;
51961;SDS011;37986;51.238;17.128;2022-10-16T06:01:46;1.37;;;0.93;;
51961;SDS011;37986;51.238;17.128;2022-10-16T06:04:11;2.63;;;1.60;;
51961;SDS011;37986;51.238;17.128;2022-10-16T06:06:37;0.95;;;0.95;;
51961;SDS011;37986;51.238;17.128;2022-10-16T06:09:03;1.00;;;0.95;;
51961;SDS011;37986;51.238;17.128;2022-10-16T06:11:30;0.15;;;0.15;;
51961;SDS011;37986;51.238;17.128;2022-10-16T06:13:58;1.02;;;0.95;;
51961;SDS011;37986;51.238;17.128;2022-10-16T06:16:28;0.30;;;0.30;;
51961;SDS011;37986;51.238;17.128;2022-10-16T06:18:54;2.17;;;0.90;;
51961;SDS011;37986;51.238;17.128;2022-10-16T06:21:25;2.05;;;1.85;;
51961;SDS011;37986;51.238;17.128;2022-10-16T06:23:53;3.02;;;1.95;;
51961;SDS011;37986;51.238;17.128;2022-10-16T06:26:21;7.87;;;1.55;;
51961;SDS011;37986;51.238;17.128;2022-10-16T06:28:49;0.90;;;0.90;;
51961;SDS011;37986;51.238;17.128;2022-10-16T06:31:15;3.75;;;1.57;;
51961;SDS011;37986;51.238;17.128;2022-10-16T06:33:42;0.80;;;0.62;;
51961;SDS011;37986;51.238;17.128;2022-10-16T06:38:38;2.05;;;1.40;;
51961;SDS011;37986;51.238;17.128;2022-10-16T06:41:05;0.50;;;0.50;;
51961;SDS011;37986;51.238;17.128;2022-10-16T06:43:32;0.40;;;0.40;;
51961;SDS011;37986;51.238;17.128;2022-10-16T06:46:00;0.53;;;0.53;;
51961;SDS011;37986;51.238;17.128;2022-10-16T06:48:28;0.65;;;0.65;;
51961;SDS011;37986;51.238;17.128;2022-10-16T06:50:59;1.00;;;1.00;;
51961;SDS011;37986;51.238;17.128;2022-10-16T06:53:38;1.60;;;1.47;;
51961;SDS011;37986;51.238;17.128;2022-10-16T06:56:13;0.40;;;0.40;;
51961;SDS011;37986;51.238;17.128;2022-10-16T06:58:44;0.30;;;0.30;;
51961;SDS011;37986;51.238;17.128;2022-10-16T07:01:11;2.98;;;1.42;;
51961;SDS011;37986;51.238;17.128;2022-10-16T07:03:38;0.78;;;0.78;;
51961;SDS011;37986;51.238;17.128;2022-10-16T07:06:07;1.42;;;1.42;;
51961;SDS011;37986;51.238;17.128;2022-10-16T07:08:36;0.75;;;0.75;;
51961;SDS011;37986;51.238;17.128;2022-10-16T07:11:05;0.72;;;0.72;;
51961;SDS011;37986;51.238;17.128;2022-10-16T07:13:33;1.60;;;1.55;;
51961;SDS011;37986;51.238;17.128;2022-10-16T07:16:20;2.15;;;1.95;;
51961;SDS011;37986;51.238;17.128;2022-10-16T07:18:38;1.72;;;0.80;;
51961;SDS011;37986;51.238;17.128;2022-10-16T07:21:18;2.72;;;1.50;;
51961;SDS011;37986;51.238;17.128;2022-10-16T07:23:45;1.35;;;1.25;;
51961;SDS011;37986;51.238;17.128;2022-10-16T07:26:17;0.28;;;0.28;;
51961;SDS011;37986;51.238;17.128;2022-10-16T07:28:43;1.05;;;0.57;;
51961;SDS011;37986;51.238;17.128;2022-10-16T07:31:10;2.30;;;1.12;;
51961;SDS011;37986;51.238;17.128;2022-10-16T07:33:39;0.50;;;0.50;;
51961;SDS011;37986;51.238;17.128;2022-10-16T07:36:08;1.27;;;1.17;;
51961;SDS011;37986;51.238;17.128;2022-10-16T07:38:34;0.33;;;0.33;;
51961;SDS011;37986;51.238;17.128;2022-10-16T07:41:00;0.68;;;0.68;;
51961;SDS011;37986;51.238;17.128;2022-10-16T07:43:28;2.37;;;1.60;;
51961;SDS011;37986;51.238;17.128;2022-10-16T07:45:54;2.20;;;2.00;;
51961;SDS011;37986;51.238;17.128;2022-10-16T07:48:20;0.62;;;0.50;;
51961;SDS011;37986;51.238;17.128;2022-10-16T07:50:48;5.55;;;0.90;;
51961;SDS011;37986;51.238;17.128;2022-10-16T07:53:14;2.17;;;0.78;;
51961;SDS011;37986;51.238;17.128;2022-10-16T07:55:40;5.78;;;4.28;;
51961;SDS011;37986;51.238;17.128;2022-10-16T07:58:06;0.70;;;0.70;;
51961;SDS011;37986;51.238;17.128;2022-10-16T08:00:32;1.62;;;1.52;;
51961;SDS011;37986;51.238;17.128;2022-10-16T08:02:59;2.08;;;1.98;;
51961;SDS011;37986;51.238;17.128;2022-10-16T08:05:27;6.30;;;1.67;;
51961;SDS011;37986;51.238;17.128;2022-10-16T08:07:54;0.62;;;0.62;;
51961;SDS011;37986;51.238;17.128;2022-10-16T08:10:22;3.40;;;1.12;;
51961;SDS011;37986;51.238;17.128;2022-10-16T08:12:51;4.70;;;1.07;;
51961;SDS011;37986;51.238;17.128;2022-10-16T08:15:17;0.85;;;0.85;;
51961;SDS011;37986;51.238;17.128;2022-10-16T08:17:44;0.30;;;0.30;;
51961;SDS011;37986;51.238;17.128;2022-10-16T08:20:12;1.15;;;0.68;;
51961;SDS011;37986;51.238;17.128;2022-10-16T08:22:38;0.10;;;0.10;;
51961;SDS011;37986;51.238;17.128;2022-10-16T08:25:04;0.47;;;0.47;;
51961;SDS011;37986;51.238;17.128;2022-10-16T08:27:31;0.40;;;0.40;;
51961;SDS011;37986;51.238;17.128;2022-10-16T08:29:58;0.17;;;0.17;;
51961;SDS011;37986;51.238;17.128;2022-10-16T08:32:23;0.68;;;0.57;;
51961;SDS011;37986;51.238;17.128;2022-10-16T08:34:49;0.55;;;0.55;;
51961;SDS011;37986;51.238;17.128;2022-10-16T08:37:15;0.10;;;0.10;;
51961;SDS011;37986;51.238;17.128;2022-10-16T08:39:40;0.20;;;0.20;;
51961;SDS011;37986;51.238;17.128;2022-10-16T08:42:09;0.10;;;0.10;;
51961;SDS011;37986;51.238;17.128;2022-10-16T08:47:35;3.55;;;0.72;;
51961;SDS011;37986;51.238;17.128;2022-10-16T08:50:27;0.10;;;0.10;;
51961;SDS011;37986;51.238;17.128;2022-10-16T08:52:53;5.72;;;1.47;;
51961;SDS011;37986;51.238;17.128;2022-10-16T08:58:11;0.57;;;0.57;;
51961;SDS011;37986;51.238;17.128;2022-10-16T09:00:40;0.62;;;0.55;;
51961;SDS011;37986;51.238;17.128;2022-10-16T09:23:08;0.10;;;0.10;;
51961;SDS011;37986;51.238;17.128;2022-10-16T09:25:37;0.00;;;0.00;;
51961;SDS011;37986;51.238;17.128;2022-10-16T09:28:05;0.10;;;0.10;;
51961;SDS011;37986;51.238;17.128;2022-10-16T09:30:32;0.10;;;0.10;;
51961;SDS011;37986;51.238;17.128;2022-10-16T09:32:58;0.75;;;0.30;;
51961;SDS011;37986;51.238;17.128;2022-10-16T09:35:43;0.30;;;0.30;;
51961;SDS011;37986;51.238;17.128;2022-10-16T09:38:04;0.00;;;0.00;;
51961;SDS011;37986;51.238;17.128;2022-10-16T09:40:35;0.10;;;0.10;;
51961;SDS011;37986;51.238;17.128;2022-10-16T09:43:07;0.20;;;0.20;;
51961;SDS011;37986;51.238;17.128;2022-10-16T09:45:59;0.00;;;0.00;;
51961;SDS011;37986;51.238;17.128;2022-10-16T09:48:37;0.00;;;0.00;;
51961;SDS011;37986;51.238;17.128;2022-10-16T09:51:16;0.40;;;0.40;;
51961;SDS011;37986;51.238;17.128;2022-10-16T09:58:58;0.00;;;0.00;;
51961;SDS011;37986;51.238;17.128;2022-10-16T10:01:29;0.13;;;0.13;;
51961;SDS011;37986;51.238;17.128;2022-10-16T10:03:59;2.30;;;0.93;;
51961;SDS011;37986;51.238;17.128;2022-10-16T10:06:32;0.10;;;0.10;;
51961;SDS011;37986;51.238;17.128;2022-10-16T10:25:31;0.42;;;0.20;;
51961;SDS011;37986;51.238;17.128;2022-10-16T10:31:20;0.33;;;0.30;;
51961;SDS011;37986;51.238;17.128;2022-10-16T10:40:22;0.00;;;0.00;;
51961;SDS011;37986;51.238;17.128;2022-10-16T10:42:59;0.60;;;0.20;;
51961;SDS011;37986;51.238;17.128;2022-10-16T10:45:47;0.00;;;0.00;;
51961;SDS011;37986;51.238;17.128;2022-10-16T10:54:20;0.10;;;0.10;;
51961;SDS011;37986;51.238;17.128;2022-10-16T10:56:59;0.33;;;0.33;;
51961;SDS011;37986;51.238;17.128;2022-10-16T11:02:46;0.00;;;0.00;;
51961;SDS011;37986;51.238;17.128;2022-10-16T11:05:22;0.05;;;0.05;;
51961;SDS011;37986;51.238;17.128;2022-10-16T11:07:57;0.00;;;0.00;;
51961;SDS011;37986;51.238;17.128;2022-10-16T11:10:34;0.00;;;0.00;;
51961;SDS011;37986;51.238;17.128;2022-10-16T11:16:21;0.30;;;0.23;;
51961;SDS011;37986;51.238;17.128;2022-10-16T11:22:11;0.00;;;0.00;;
51961;SDS011;37986;51.238;17.128;2022-10-16T11:25:33;0.28;;;0.28;;
51961;SDS011;37986;51.238;17.128;2022-10-16T11:27:24;0.10;;;0.10;;
51961;SDS011;37986;51.238;17.128;2022-10-16T11:29:59;0.10;;;0.10;;
51961;SDS011;37986;51.238;17.128;2022-10-16T11:32:30;0.00;;;0.00;;
51961;SDS011;37986;51.238;17.128;2022-10-16T11:35:06;0.20;;;0.20;;
51961;SDS011;37986;51.238;17.128;2022-10-16T11:37:36;0.10;;;0.10;;
51961;SDS011;37986;51.238;17.128;2022-10-16T11:40:16;0.20;;;0.20;;
51961;SDS011;37986;51.238;17.128;2022-10-16T11:43:07;0.47;;;0.47;;
51961;SDS011;37986;51.238;17.128;2022-10-16T11:45:51;0.00;;;0.00;;
51961;SDS011;37986;51.238;17.128;2022-10-16T11:48:27;0.10;;;0.10;;
51961;SDS011;37986;51.238;17.128;2022-10-16T11:51:05;1.00;;;0.33;;
51961;SDS011;37986;51.238;17.128;2022-10-16T11:53:51;0.85;;;0.85;;
51961;SDS011;37986;51.238;17.128;2022-10-16T11:56:22;0.00;;;0.00;;
51961;SDS011;37986;51.238;17.128;2022-10-16T11:58:53;0.10;;;0.10;;
51961;SDS011;37986;51.238;17.128;2022-10-16T12:04:06;0.00;;;0.00;;
51961;SDS011;37986;51.238;17.128;2022-10-16T12:09:29;0.00;;;0.00;;
51961;SDS011;37986;51.238;17.128;2022-10-16T12:11:58;0.10;;;0.10;;
51961;SDS011;37986;51.238;17.128;2022-10-16T12:14:39;0.00;;;0.00;;
51961;SDS011;37986;51.238;17.128;2022-10-16T12:19:58;0.33;;;0.33;;
51961;SDS011;37986;51.238;17.128;2022-10-16T12:22:27;0.00;;;0.00;;
51961;SDS011;37986;51.238;17.128;2022-10-16T12:24:55;0.00;;;0.00;;
51961;SDS011;37986;51.238;17.128;2022-10-16T12:29:55;0.00;;;0.00;;
51961;SDS011;37986;51.238;17.128;2022-10-16T12:32:32;0.00;;;0.00;;
51961;SDS011;37986;51.238;17.128;2022-10-16T12:35:00;0.03;;;0.03;;
51961;SDS011;37986;51.238;17.128;2022-10-16T12:37:32;0.00;;;0.00;;
51961;SDS011;37986;51.238;17.128;2022-10-16T12:42:50;0.10;;;0.10;;
51961;SDS011;37986;51.238;17.128;2022-10-16T12:47:59;0.00;;;0.00;;
51961;SDS011;37986;51.238;17.128;2022-10-16T12:53:03;1.35;;;1.25;;
51961;SDS011;37986;51.238;17.128;2022-10-16T12:55:34;1.05;;;1.00;;
51961;SDS011;37986;51.238;17.128;2022-10-16T13:00:50;0.23;;;0.23;;
51961;SDS011;37986;51.238;17.128;2022-10-16T13:15:05;0.28;;;0.28;;
51961;SDS011;37986;51.238;17.128;2022-10-16T13:17:58;0.20;;;0.20;;
51961;SDS011;37986;51.238;17.128;2022-10-16T13:20:59;0.40;;;0.40;;
51961;SDS011;37986;51.238;17.128;2022-10-16T13:29:36;0.05;;;0.05;;
51961;SDS011;37986;51.238;17.128;2022-10-16T13:32:06;0.00;;;0.00;;
51961;SDS011;37986;51.238;17.128;2022-10-16T13:34:32;3.60;;;1.20;;
51961;SDS011;37986;51.238;17.128;2022-10-16T13:36:58;0.00;;;0.00;;
51961;SDS011;37986;51.238;17.128;2022-10-16T13:39:28;0.10;;;0.10;;
51961;SDS011;37986;51.238;17.128;2022-10-16T13:44:36;0.00;;;0.00;;
51961;SDS011;37986;51.238;17.128;2022-10-16T13:47:14;0.00;;;0.00;;
51961;SDS011;37986;51.238;17.128;2022-10-16T13:50:00;0.00;;;0.00;;
51961;SDS011;37986;51.238;17.128;2022-10-16T13:52:33;0.10;;;0.10;;
51961;SDS011;37986;51.238;17.128;2022-10-16T13:55:01;0.10;;;0.10;;
51961;SDS011;37986;51.238;17.128;2022-10-16T13:57:32;0.17;;;0.17;;
51961;SDS011;37986;51.238;17.128;2022-10-16T14:00:02;0.35;;;0.35;;
51961;SDS011;37986;51.238;17.128;2022-10-16T14:02:30;0.00;;;0.00;;
51961;SDS011;37986;51.238;17.128;2022-10-16T14:05:01;0.10;;;0.10;;
51961;SDS011;37986;51.238;17.128;2022-10-16T14:07:29;0.00;;;0.00;;
51961;SDS011;37986;51.238;17.128;2022-10-16T14:10:00;0.00;;;0.00;;
51961;SDS011;37986;51.238;17.128;2022-10-16T14:12:35;0.10;;;0.10;;
51961;SDS011;37986;51.238;17.128;2022-10-16T14:15:00;0.00;;;0.00;;
51961;SDS011;37986;51.238;17.128;2022-10-16T14:19:58;0.55;;;0.08;;
51961;SDS011;37986;51.238;17.128;2022-10-16T14:22:32;1.17;;;1.00;;
51961;SDS011;37986;51.238;17.128;2022-10-16T14:25:00;0.00;;;0.00;;
51961;SDS011;37986;51.238;17.128;2022-10-16T14:30:09;0.00;;;0.00;;
51961;SDS011;37986;51.238;17.128;2022-10-16T14:32:52;0.00;;;0.00;;
51961;SDS011;37986;51.238;17.128;2022-10-16T14:35:35;0.00;;;0.00;;
51961;SDS011;37986;51.238;17.128;2022-10-16T14:38:03;0.00;;;0.00;;
51961;SDS011;37986;51.238;17.128;2022-10-16T14:40:35;0.00;;;0.00;;
51961;SDS011;37986;51.238;17.128;2022-10-16T14:43:03;0.00;;;0.00;;
51961;SDS011;37986;51.238;17.128;2022-10-16T14:45:31;0.00;;;0.00;;
51961;SDS011;37986;51.238;17.128;2022-10-16T14:48:00;0.00;;;0.00;;
51961;SDS011;37986;51.238;17.128;2022-10-16T14:50:30;0.13;;;0.10;;
51961;SDS011;37986;51.238;17.128;2022-10-16T14:52:56;0.00;;;0.00;;
51961;SDS011;37986;51.238;17.128;2022-10-16T14:55:21;0.10;;;0.10;;
51961;SDS011;37986;51.238;17.128;2022-10-16T14:57:47;0.00;;;0.00;;
51961;SDS011;37986;51.238;17.128;2022-10-16T15:00:20;0.13;;;0.13;;
51961;SDS011;37986;51.238;17.128;2022-10-16T15:02:49;0.00;;;0.00;;
51961;SDS011;37986;51.238;17.128;2022-10-16T15:07:50;0.40;;;0.40;;
51961;SDS011;37986;51.238;17.128;2022-10-16T15:10:18;1.12;;;0.75;;
51961;SDS011;37986;51.238;17.128;2022-10-16T15:12:46;0.10;;;0.10;;
51961;SDS011;37986;51.238;17.128;2022-10-16T15:15:32;0.60;;;0.60;;
51961;SDS011;37986;51.238;17.128;2022-10-16T15:17:53;0.40;;;0.40;;
51961;SDS011;37986;51.238;17.128;2022-10-16T15:20:25;1.60;;;1.50;;
51961;SDS011;37986;51.238;17.128;2022-10-16T15:23:03;1.40;;;1.30;;
51961;SDS011;37986;51.238;17.128;2022-10-16T15:25:46;0.62;;;0.62;;
51961;SDS011;37986;51.238;17.128;2022-10-16T15:28:17;0.45;;;0.45;;
51961;SDS011;37986;51.238;17.128;2022-10-16T15:30:45;0.30;;;0.30;;
51961;SDS011;37986;51.238;17.128;2022-10-16T15:33:12;0.85;;;0.85;;
51961;SDS011;37986;51.238;17.128;2022-10-16T15:35:46;0.10;;;0.10;;
51961;SDS011;37986;51.238;17.128;2022-10-16T15:38:15;0.00;;;0.00;;
51961;SDS011;37986;51.238;17.128;2022-10-16T15:40:43;0.00;;;0.00;;
51961;SDS011;37986;51.238;17.128;2022-10-16T15:43:10;0.10;;;0.10;;
51961;SDS011;37986;51.238;17.128;2022-10-16T15:45:37;0.10;;;0.10;;
51961;SDS011;37986;51.238;17.128;2022-10-16T15:48:02;0.20;;;0.20;;
51961;SDS011;37986;51.238;17.128;2022-10-16T15:50:29;0.30;;;0.30;;
51961;SDS011;37986;51.238;17.128;2022-10-16T15:52:56;0.00;;;0.00;;
51961;SDS011;37986;51.238;17.128;2022-10-16T15:55:22;0.08;;;0.08;;
51961;SDS011;37986;51.238;17.128;2022-10-16T15:57:48;0.00;;;0.00;;
51961;SDS011;37986;51.238;17.128;2022-10-16T16:00:14;0.10;;;0.10;;
51961;SDS011;37986;51.238;17.128;2022-10-16T16:02:43;0.10;;;0.10;;
51961;SDS011;37986;51.238;17.128;2022-10-16T16:05:13;0.10;;;0.10;;
51961;SDS011;37986;51.238;17.128;2022-10-16T16:07:39;2.92;;;2.20;;
51961;SDS011;37986;51.238;17.128;2022-10-16T16:10:06;0.57;;;0.57;;
51961;SDS011;37986;51.238;17.128;2022-10-16T16:12:35;1.10;;;1.10;;
51961;SDS011;37986;51.238;17.128;2022-10-16T16:15:03;0.60;;;0.60;;
51961;SDS011;37986;51.238;17.128;2022-10-16T16:17:34;0.10;;;0.10;;
51961;SDS011;37986;51.238;17.128;2022-10-16T16:20:00;0.10;;;0.10;;
51961;SDS011;37986;51.238;17.128;2022-10-16T16:22:27;0.10;;;0.10;;
51961;SDS011;37986;51.238;17.128;2022-10-16T16:24:53;0.00;;;0.00;;
51961;SDS011;37986;51.238;17.128;2022-10-16T16:27:19;0.00;;;0.00;;
51961;SDS011;37986;51.238;17.128;2022-10-16T16:29:45;0.00;;;0.00;;
51961;SDS011;37986;51.238;17.128;2022-10-16T16:32:12;0.10;;;0.10;;
51961;SDS011;37986;51.238;17.128;2022-10-16T16:34:38;1.05;;;0.95;;
51961;SDS011;37986;51.238;17.128;2022-10-16T16:37:04;0.00;;;0.00;;
51961;SDS011;37986;51.238;17.128;2022-10-16T16:39:29;18.05;;;10.10;;
51961;SDS011;37986;51.238;17.128;2022-10-16T16:41:56;0.20;;;0.20;;
51961;SDS011;37986;51.238;17.128;2022-10-16T16:44:24;0.10;;;0.10;;
51961;SDS011;37986;51.238;17.128;2022-10-16T16:46:50;0.00;;;0.00;;
51961;SDS011;37986;51.238;17.128;2022-10-16T16:49:16;0.17;;;0.17;;
51961;SDS011;37986;51.238;17.128;2022-10-16T16:51:42;1.40;;;1.30;;
51961;SDS011;37986;51.238;17.128;2022-10-16T16:54:09;1.92;;;1.82;;
51961;SDS011;37986;51.238;17.128;2022-10-16T16:56:38;0.10;;;0.10;;
51961;SDS011;37986;51.238;17.128;2022-10-16T16:59:10;0.72;;;0.72;;
51961;SDS011;37986;51.238;17.128;2022-10-16T17:01:45;0.10;;;0.10;;